Weather at Denver International Airport

Public forecast

Using degrees Fahrenheit for public forecast. Weather courtesy of forecast.io.

Current aviation weather report (METAR) for Denver International Airport

Retrieved 2021/10/22 04:53 UTC (16 minutes ago):

KDEN 220453Z 20009KT 10SM CLR 09/M09 A3021 RMK AO2 SLP197 T00891089

Aviation forecast (TAF) for Denver International Airport

Retrieved 2021-10-22 00:27 UTC (5 hours ago):

TAF KDEN 212324Z 2200/2306 13006KT P6SM FEW200 FM220400 21008KT P6SM SKC FM221600 VRB06KT P6SM FEW200 FM222000 15006KT P6SM SCT200 FM230400 20010KT P6SM BKN200